Time;durP1;ratioP1;P1;durP2;ratioP2;P2;SDS_P1;SDS_P2;PMS_P1;PMS_P2;Temp;Humidity;BMP_temperature;BMP_pressure;BME280_temperature;BME280_humidity;BME280_pressure;Samples;Min_cycle;Max_cycle;Signal;HPM_P1;HPM_P2
2021/01/06 00:01:53;;;;;;;38.90;14.70;;;-0.80;99.90;;;;;;5058545;28;20045;-80
2021/01/06 00:04:24;;;;;;;33.08;13.27;;;-0.80;99.90;;;;;;5074286;28;20041;-78
2021/01/06 00:06:56;;;;;;;32.55;13.52;;;-0.80;99.90;;;;;;5074314;28;20454;-78
2021/01/06 00:09:23;;;;;;;26.60;13.05;;;-0.90;99.90;;;;;;5057877;28;20045;-78
2021/01/06 00:11:54;;;;;;;29.85;12.65;;;-0.80;99.90;;;;;;5073834;28;20051;-78
2021/01/06 00:14:21;;;;;;;33.38;13.13;;;-0.90;99.90;;;;;;5073924;28;20052;-79
2021/01/06 00:16:55;;;;;;;34.20;13.68;;;-0.90;99.90;;;;;;5058317;28;20045;-79
2021/01/06 00:19:22;;;;;;;32.78;14.35;;;-0.90;99.90;;;;;;5057304;28;20049;-79
2021/01/06 00:21:48;;;;;;;37.30;15.27;;;-0.90;99.90;;;;;;5073908;28;20041;-78
2021/01/06 00:24:20;;;;;;;32.95;13.75;;;-0.90;99.90;;;;;;5057916;28;20064;-79
2021/01/06 00:26:52;;;;;;;37.97;14.90;;;-0.90;99.90;;;;;;5073958;28;20041;-78
2021/01/06 00:29:24;;;;;;;33.33;14.15;;;-0.90;99.90;;;;;;5058064;28;20044;-78
2021/01/06 00:31:55;;;;;;;36.35;14.95;;;-0.90;99.90;;;;;;5073906;28;20041;-83
2021/01/06 00:34:27;;;;;;;34.08;14.90;;;-0.90;99.90;;;;;;5057099;28;20075;-78
2021/01/06 00:36:59;;;;;;;36.38;16.27;;;-0.90;99.90;;;;;;5057429;28;20510;-78
2021/01/06 00:39:26;;;;;;;32.90;14.05;;;-0.90;99.90;;;;;;5073273;28;20047;-79
2021/01/06 00:41:58;;;;;;;36.28;14.88;;;-0.90;99.90;;;;;;5057811;28;20044;-80
2021/01/06 00:44:25;;;;;;;34.97;13.68;;;-0.90;99.90;;;;;;5073573;28;20067;-80
2021/01/06 00:46:57;;;;;;;39.25;16.25;;;-0.90;99.90;;;;;;5073408;28;20053;-79
2021/01/06 00:49:28;;;;;;;35.22;12.57;;;-0.80;99.90;;;;;;5073028;28;20040;-79
2021/01/06 00:52:00;;;;;;;31.63;13.82;;;-0.90;99.90;;;;;;5057535;28;20071;-81
2021/01/06 00:54:34;;;;;;;35.28;14.02;;;-0.80;99.90;;;;;;5057426;28;20044;-79
2021/01/06 00:57:06;;;;;;;32.25;13.80;;;-0.80;99.90;;;;;;5073158;28;20127;-81
2021/01/06 00:59:38;;;;;;;32.50;13.20;;;-0.80;99.90;;;;;;5057604;28;20040;-78
2021/01/06 01:02:09;;;;;;;36.10;14.38;;;-0.80;99.90;;;;;;5057292;28;20072;-78
2021/01/06 01:04:38;;;;;;;33.45;13.40;;;-0.80;99.90;;;;;;5056919;28;20063;-78
2021/01/06 01:07:10;;;;;;;38.13;15.20;;;-0.80;99.90;;;;;;5073387;28;20104;-78
2021/01/06 01:09:44;;;;;;;36.00;15.48;;;-0.80;99.90;;;;;;5057023;28;20075;-79
2021/01/06 01:12:16;;;;;;;37.28;14.75;;;-0.80;99.90;;;;;;5073191;28;20457;-79
2021/01/06 01:14:48;;;;;;;36.45;15.13;;;-0.80;99.90;;;;;;5065295;28;20047;-79
2021/01/06 01:17:19;;;;;;;34.95;14.63;;;-0.80;99.90;;;;;;5052922;28;20044;-78
2021/01/06 01:19:47;;;;;;;35.20;14.75;;;-0.80;99.90;;;;;;5072404;28;20496;-78
2021/01/06 01:22:19;;;;;;;36.40;15.00;;;-0.80;99.90;;;;;;5073349;28;20136;-78
2021/01/06 01:24:50;;;;;;;35.30;14.90;;;-0.70;99.90;;;;;;5081861;28;20043;-80
2021/01/06 01:27:22;;;;;;;34.75;15.45;;;-0.80;99.90;;;;;;5077497;28;20545;-79
2021/01/06 01:29:54;;;;;;;34.35;14.73;;;-0.80;99.90;;;;;;5077921;28;20042;-79
2021/01/06 01:32:21;;;;;;;37.72;15.80;;;-0.80;99.90;;;;;;5076802;28;20093;-80
2021/01/06 01:34:48;;;;;;;35.22;13.93;;;-0.80;99.90;;;;;;5076551;28;20050;-79
2021/01/06 01:37:14;;;;;;;34.15;14.95;;;-0.90;99.90;;;;;;5068735;28;20040;-79
2021/01/06 01:39:46;;;;;;;35.88;14.48;;;-0.90;99.90;;;;;;5077657;28;20040;-80
2021/01/06 01:42:18;;;;;;;37.30;15.35;;;-0.90;99.90;;;;;;5077303;28;20048;-79
2021/01/06 01:44:55;;;;;;;39.72;14.60;;;-0.90;99.90;;;;;;5076582;28;20060;-78
2021/01/06 01:47:31;;;;;;;31.90;14.35;;;-0.90;99.90;;;;;;5076185;28;20063;-79
2021/01/06 01:50:06;;;;;;;36.20;15.32;;;-1.00;99.90;;;;;;5093443;28;20048;-78
2021/01/06 01:52:46;;;;;;;34.38;14.30;;;-0.90;99.90;;;;;;5093078;28;20399;-79
2021/01/06 01:55:20;;;;;;;35.53;13.85;;;-0.90;99.90;;;;;;5077403;28;20131;-78
2021/01/06 01:57:56;;;;;;;31.52;14.73;;;-1.00;99.90;;;;;;5077195;28;20047;-78
2021/01/06 02:00:27;;;;;;;36.90;15.07;;;-1.00;99.90;;;;;;5076450;28;20044;-78
2021/01/06 02:03:08;;;;;;;35.33;13.38;;;-1.00;99.90;;;;;;5076977;28;20117;-78
2021/01/06 02:06:12;;;;;;;32.30;14.30;;;-1.00;99.90;;;;;;5077003;28;20117;-78
2021/01/06 02:08:57;;;;;;;32.08;14.18;;;-1.00;99.90;;;;;;5043501;28;20047;-78
2021/01/06 02:11:37;;;;;;;33.70;14.32;;;-1.00;99.90;;;;;;5076871;28;20048;-78
2021/01/06 02:14:11;;;;;;;37.30;14.40;;;-1.00;99.90;;;;;;5093184;28;20040;-79
2021/01/06 02:16:53;;;;;;;32.40;14.02;;;-0.90;99.90;;;;;;5075960;28;20136;-79
2021/01/06 02:19:36;;;;;;;34.10;14.77;;;-0.90;99.90;;;;;;5093197;28;20113;-78
2021/01/06 02:22:05;;;;;;;38.50;15.73;;;-1.00;99.90;;;;;;5076021;28;20055;-79
2021/01/06 02:24:39;;;;;;;38.03;15.13;;;-1.00;99.90;;;;;;5076805;28;20043;-78
2021/01/06 02:27:11;;;;;;;31.63;15.55;;;-1.00;99.90;;;;;;5093066;28;20044;-78
2021/01/06 02:29:43;;;;;;;37.05;14.52;;;-1.00;99.90;;;;;;5076800;28;20131;-79
2021/01/06 02:32:15;;;;;;;33.92;13.52;;;-1.00;99.90;;;;;;5093557;28;20530;-78
2021/01/06 02:34:43;;;;;;;38.97;16.05;;;-1.00;99.90;;;;;;5093984;28;20502;-78
2021/01/06 02:37:14;;;;;;;38.70;16.52;;;-0.90;99.90;;;;;;5092900;28;20131;-79
2021/01/06 02:39:48;;;;;;;37.45;14.63;;;-1.00;99.90;;;;;;5076382;28;20526;-78
2021/01/06 02:42:21;;;;;;;35.00;15.18;;;-0.90;99.90;;;;;;5092774;28;20044;-79
2021/01/06 02:44:53;;;;;;;36.30;14.48;;;-0.90;99.90;;;;;;5092600;28;20044;-78
2021/01/06 02:47:26;;;;;;;33.25;15.35;;;-0.90;99.90;;;;;;5076590;28;20040;-78
2021/01/06 02:49:59;;;;;;;41.80;16.10;;;-0.90;99.90;;;;;;5076726;28;20048;-80
2021/01/06 02:52:48;;;;;;;37.30;16.63;;;-0.90;99.90;;;;;;5092287;28;20067;-78
2021/01/06 02:55:15;;;;;;;;;;;-0.90;99.90;;;;;;5076535;28;20139;-79
2021/01/06 02:57:48;;;;;;;37.58;15.18;;;-0.90;99.90;;;;;;5092713;28;20340;-78
2021/01/06 03:00:23;;;;;;;38.30;15.00;;;-0.90;99.90;;;;;;5079983;28;20070;-79
2021/01/06 03:02:51;;;;;;;39.13;15.80;;;-0.90;99.90;;;;;;5079134;28;20522;-79
2021/01/06 03:05:27;;;;;;;45.92;16.52;;;-0.90;99.90;;;;;;5097099;28;20064;-79
2021/01/06 03:07:59;;;;;;;38.22;16.67;;;-1.00;99.90;;;;;;5079589;28;20093;-78
2021/01/06 03:10:31;;;;;;;39.30;15.90;;;-0.90;99.90;;;;;;5096165;28;20036;-79
2021/01/06 03:13:03;;;;;;;41.25;17.23;;;-0.90;99.90;;;;;;5080066;28;20047;-80
2021/01/06 03:15:36;;;;;;;36.22;15.07;;;-0.90;99.90;;;;;;5095976;28;20419;-78
2021/01/06 03:18:08;;;;;;;39.55;15.30;;;-0.90;99.90;;;;;;5079637;28;20032;-84
2021/01/06 03:20:40;;;;;;;43.85;15.52;;;-0.90;99.90;;;;;;5078836;28;20410;-78
2021/01/06 03:23:29;;;;;;;40.60;15.77;;;-0.90;99.90;;;;;;5078649;28;20044;-79
2021/01/06 03:26:02;;;;;;;;;;;-0.90;99.90;;;;;;5095824;28;20040;-79
2021/01/06 03:28:36;;;;;;;39.00;16.23;;;-0.90;99.90;;;;;;5079179;28;20314;-80
2021/01/06 03:31:09;;;;;;;36.35;16.23;;;-0.90;99.90;;;;;;5078959;28;20048;-78
2021/01/06 03:34:19;;;;;;;31.35;12.35;;;-0.90;99.90;;;;;;5078661;28;20052;-79
2021/01/06 03:37:12;;;;;;;30.27;14.18;;;-0.80;99.90;;;;;;5060733;28;20105;-79
2021/01/06 03:39:52;;;;;;;36.10;14.45;;;-0.90;99.90;;;;;;5095060;28;20411;-79
2021/01/06 03:42:20;;;;;;;37.38;16.10;;;-0.90;99.90;;;;;;5078706;28;20044;-78
2021/01/06 03:44:52;;;;;;;35.30;15.88;;;-0.90;99.90;;;;;;5079023;28;20531;-79
2021/01/06 03:47:33;;;;;;;37.72;16.05;;;-0.90;99.90;;;;;;5078611;28;20574;-79
2021/01/06 03:50:25;;;;;;;38.35;16.40;;;-0.90;99.90;;;;;;5078737;28;20051;-79
2021/01/06 03:53:20;;;;;;;43.92;16.92;;;-0.90;99.90;;;;;;5078722;28;20044;-78
2021/01/06 03:56:02;;;;;;;41.17;16.27;;;-0.90;99.90;;;;;;5078240;28;20510;-79
2021/01/06 03:58:59;;;;;;;38.35;15.32;;;-0.80;99.90;;;;;;5078874;28;20067;-81
2021/01/06 04:02:04;;;;;;;47.15;16.63;;;-0.80;99.90;;;;;;5094628;28;20061;-79
2021/01/06 04:04:43;;;;;;;34.55;15.13;;;-0.80;99.90;;;;;;5092870;28;20426;-80
2021/01/06 04:07:19;;;;;;;38.85;16.33;;;-0.70;99.90;;;;;;5078058;28;20052;-79
2021/01/06 04:09:57;;;;;;;41.97;15.63;;;-0.70;99.90;;;;;;5077913;28;20048;-78
2021/01/06 04:12:23;;;;;;;39.38;15.77;;;-0.70;99.90;;;;;;5077769;28;20449;-79
2021/01/06 04:14:55;;;;;;;36.28;14.77;;;-0.70;99.90;;;;;;5077892;28;20156;-79
2021/01/06 04:17:39;;;;;;;37.20;15.57;;;-0.70;99.90;;;;;;5078284;28;20048;-79
2021/01/06 04:20:32;;;;;;;41.42;16.50;;;-0.70;99.90;;;;;;5078351;28;20043;-79
2021/01/06 04:23:01;;;;;;;43.50;15.70;;;-0.80;99.90;;;;;;5077020;28;20044;-79
2021/01/06 04:25:35;;;;;;;38.78;15.60;;;-0.80;99.90;;;;;;5094475;28;20067;-79
2021/01/06 04:28:18;;;;;;;37.45;16.50;;;-0.80;99.90;;;;;;5077882;28;20043;-79
2021/01/06 04:30:59;;;;;;;44.33;17.52;;;-0.80;99.90;;;;;;5078152;28;20044;-80
2021/01/06 04:33:40;;;;;;;42.72;16.50;;;-0.80;99.90;;;;;;5094037;28;20048;-79
2021/01/06 04:36:12;;;;;;;41.92;18.00;;;-0.80;99.90;;;;;;5077578;28;20061;-79
2021/01/06 04:38:49;;;;;;;45.53;17.40;;;-0.80;99.90;;;;;;5077696;28;20039;-79
2021/01/06 04:41:36;;;;;;;48.97;19.52;;;-0.80;99.90;;;;;;5077848;28;20040;-79
2021/01/06 04:44:46;;;;;;;43.88;17.77;;;-0.90;99.90;;;;;;5093813;28;20046;-79
2021/01/06 04:47:37;;;;;;;44.67;17.50;;;-0.90;99.90;;;;;;5077517;28;20110;-79
2021/01/06 04:50:41;;;;;;;40.83;18.27;;;-0.90;99.90;;;;;;5093974;28;20047;-79
2021/01/06 04:53:40;;;;;;;32.75;13.40;;;-0.90;99.90;;;;;;5076810;28;20056;-79
2021/01/06 04:56:22;;;;;;;46.85;17.15;;;-0.90;99.90;;;;;;5054780;28;20078;-79
2021/01/06 04:59:11;;;;;;;36.33;16.55;;;-0.90;99.90;;;;;;5093269;28;20036;-79
2021/01/06 05:02:05;;;;;;;42.97;17.52;;;-0.90;99.90;;;;;;5076862;28;20453;-79
2021/01/06 05:04:48;;;;;;;39.85;17.30;;;-0.90;99.90;;;;;;5077271;28;20131;-81
2021/01/06 05:07:52;;;;;;;41.67;16.67;;;-0.80;99.90;;;;;;5093679;28;20048;-79
2021/01/06 05:10:41;;;;;;;38.40;17.50;;;-0.80;99.90;;;;;;5036712;28;20105;-79
2021/01/06 05:13:16;;;;;;;43.85;19.08;;;-0.80;99.90;;;;;;5076577;28;20065;-80
2021/01/06 05:16:19;;;;;;;41.65;17.75;;;-0.80;99.90;;;;;;5077408;28;20044;-79
2021/01/06 05:18:51;;;;;;;43.40;17.60;;;-0.80;99.90;;;;;;5074792;28;20048;-80
2021/01/06 05:21:27;;;;;;;42.25;18.45;;;-0.80;99.90;;;;;;5076291;28;20055;-79
2021/01/06 05:24:01;;;;;;;47.85;17.92;;;-0.80;99.90;;;;;;5093016;28;20052;-79
2021/01/06 05:26:32;;;;;;;37.90;16.17;;;-0.80;99.90;;;;;;5093947;28;20067;-79
2021/01/06 05:29:17;;;;;;;39.83;18.08;;;-0.80;99.90;;;;;;5092760;28;20036;-79
2021/01/06 05:31:49;;;;;;;44.47;17.45;;;-0.80;99.90;;;;;;5076681;28;20122;-80
2021/01/06 05:34:24;;;;;;;43.53;19.17;;;-0.80;99.90;;;;;;5092829;28;20036;-79
2021/01/06 05:36:56;;;;;;;44.65;17.60;;;-0.70;99.90;;;;;;5092779;28;20040;-79
2021/01/06 05:39:26;;;;;;;42.15;18.42;;;-0.80;99.90;;;;;;5075874;28;20126;-79
2021/01/06 05:42:09;;;;;;;45.42;18.52;;;-0.70;99.90;;;;;;5077047;28;20498;-82
2021/01/06 05:44:36;;;;;;;45.55;18.52;;;-0.80;99.90;;;;;;5092531;28;20054;-79
2021/01/06 05:47:18;;;;;;;43.75;17.60;;;-0.80;99.90;;;;;;5076373;28;20040;-81
2021/01/06 05:49:53;;;;;;;42.50;18.63;;;-0.80;99.90;;;;;;5076197;28;20059;-81
2021/01/06 05:52:26;;;;;;;47.22;19.15;;;-0.80;99.90;;;;;;5076188;28;20044;-84
2021/01/06 05:55:03;;;;;;;41.05;16.85;;;-0.80;99.90;;;;;;5076679;28;20489;-79
2021/01/06 05:57:49;;;;;;;38.65;17.73;;;-0.70;99.90;;;;;;5093149;28;20040;-79
2021/01/06 06:00:43;;;;;;;40.47;18.35;;;-0.70;99.90;;;;;;5075872;28;20048;-81
2021/01/06 06:03:37;;;;;;;35.95;15.38;;;-0.70;99.90;;;;;;5092279;28;20066;-79
2021/01/06 06:06:27;;;;;;;37.78;16.33;;;-0.70;99.90;;;;;;5076210;28;20032;-79
2021/01/06 06:09:25;;;;;;;42.85;16.70;;;-0.70;99.90;;;;;;5076774;28;20064;-79
2021/01/06 06:12:21;;;;;;;35.97;16.17;;;-0.70;99.90;;;;;;5038990;28;20445;-79
2021/01/06 06:15:21;;;;;;;49.65;16.52;;;-0.70;99.90;;;;;;5076159;28;20044;-79
2021/01/06 06:17:57;;;;;;;36.20;16.17;;;-0.70;99.90;;;;;;5065480;28;20422;-80
2021/01/06 06:20:40;;;;;;;36.90;15.52;;;-0.70;99.90;;;;;;5092464;28;20066;-79
2021/01/06 06:23:31;;;;;;;35.05;17.00;;;-0.60;99.90;;;;;;5075567;28;20111;-79
2021/01/06 06:26:25;;;;;;;38.50;16.45;;;-0.60;99.90;;;;;;5092289;28;20384;-79
2021/01/06 06:29:10;;;;;;;35.28;14.70;;;-0.70;99.90;;;;;;5076134;28;20051;-79
2021/01/06 06:31:38;;;;;;;42.22;15.48;;;-0.70;99.90;;;;;;5075404;28;20455;-79
2021/01/06 06:34:12;;;;;;;36.95;15.93;;;-0.70;99.90;;;;;;5078075;28;20586;-79
2021/01/06 06:36:46;;;;;;;;;;;-0.60;99.90;;;;;;5080393;28;20054;-79
2021/01/06 06:39:27;;;;;;;41.53;15.30;;;-0.60;99.90;;;;;;5079531;28;19963;-79
2021/01/06 06:42:14;;;;;;;38.75;17.65;;;-0.60;99.90;;;;;;5095640;28;20093;-79
2021/01/06 06:45:20;;;;;;;40.20;17.27;;;-0.60;99.90;;;;;;5079626;28;20054;-79
2021/01/06 06:47:52;;;;;;;43.58;16.85;;;-0.60;99.90;;;;;;5079453;28;20046;-79
2021/01/06 06:50:52;;;;;;;43.83;17.33;;;-0.70;99.90;;;;;;5098992;28;20067;-79
2021/01/06 06:53:41;;;;;;;36.17;16.20;;;-0.70;99.90;;;;;;5084745;28;20090;-79
2021/01/06 06:56:40;;;;;;;61.78;25.38;;;-0.70;99.90;;;;;;5085218;28;20093;-78
2021/01/06 06:59:15;;;;;;;39.78;18.65;;;-0.60;99.90;;;;;;5101114;28;20105;-79
2021/01/06 07:01:48;;;;;;;42.42;16.48;;;-0.70;99.90;;;;;;5085061;28;20593;-78
2021/01/06 07:04:24;;;;;;;45.33;16.60;;;-0.60;99.90;;;;;;5094884;28;20048;-78
2021/01/06 07:06:53;;;;;;;44.38;17.33;;;-0.60;99.90;;;;;;5090973;28;20040;-79
2021/01/06 07:09:26;;;;;;;38.60;19.67;;;-0.60;99.90;;;;;;5065005;28;20056;-81
2021/01/06 07:12:01;;;;;;;42.88;20.70;;;-0.60;99.90;;;;;;5067553;28;20084;-80
2021/01/06 07:14:31;;;;;;;42.85;20.95;;;-0.60;99.90;;;;;;5082127;28;20123;-80
2021/01/06 07:17:05;;;;;;;44.55;17.75;;;-0.60;99.90;;;;;;5088138;28;20048;-81
2021/01/06 07:19:39;;;;;;;44.92;18.27;;;-0.60;99.90;;;;;;5084887;28;20514;-79
2021/01/06 07:22:30;;;;;;;44.25;18.30;;;-0.70;99.90;;;;;;5089948;28;20070;-80
2021/01/06 07:25:12;;;;;;;44.53;18.85;;;-0.60;99.90;;;;;;5090537;28;20587;-80
2021/01/06 07:27:46;;;;;;;44.95;18.02;;;-0.60;99.90;;;;;;5088705;28;20050;-79
2021/01/06 07:30:38;;;;;;;43.92;17.65;;;-0.60;99.90;;;;;;5093350;28;20094;-81
2021/01/06 07:33:29;;;;;;;40.15;17.25;;;-0.60;99.90;;;;;;5093141;28;20058;-83
2021/01/06 07:36:11;;;;;;;70.10;28.63;;;-0.60;99.90;;;;;;5092816;28;20043;-79
2021/01/06 07:38:38;;;;;;;47.47;17.58;;;-0.60;99.90;;;;;;5091994;28;20130;-80
2021/01/06 07:41:10;;;;;;;45.95;21.13;;;-0.70;99.90;;;;;;5108784;28;20055;-79
2021/01/06 07:43:44;;;;;;;49.67;22.50;;;-0.60;99.90;;;;;;5107807;28;20044;-80
2021/01/06 07:46:13;;;;;;;;;;;-0.70;99.90;;;;;;5092462;28;20048;-79
2021/01/06 07:48:45;;;;;;;47.92;21.08;;;-0.70;99.90;;;;;;5107138;28;19920;-79
2021/01/06 07:51:18;;;;;;;53.97;23.92;;;-0.70;99.90;;;;;;5074088;28;20044;-80
2021/01/06 07:53:51;;;;;;;46.78;20.60;;;-0.70;99.90;;;;;;5086562;28;20044;-79
2021/01/06 07:56:45;;;;;;;48.92;21.77;;;-0.70;99.90;;;;;;5070915;28;20051;-80
2021/01/06 07:59:32;;;;;;;49.25;22.33;;;-0.70;99.90;;;;;;5069574;28;20052;-79
2021/01/06 08:02:11;;;;;;;49.15;21.40;;;-0.70;99.90;;;;;;5085607;28;20044;-79
2021/01/06 08:05:20;;;;;;;44.88;21.55;;;-0.70;99.90;;;;;;5069133;28;20067;-79
2021/01/06 08:08:08;;;;;;;45.20;21.50;;;-0.70;99.90;;;;;;5053419;28;20045;-79
2021/01/06 08:10:37;;;;;;;48.35;21.60;;;-0.80;99.90;;;;;;5064109;28;20075;-80
2021/01/06 08:13:11;;;;;;;44.30;20.92;;;-0.70;99.90;;;;;;5068127;28;20083;-80
2021/01/06 08:15:45;;;;;;;50.50;19.40;;;-0.70;99.90;;;;;;5068623;28;20139;-79
2021/01/06 08:18:22;;;;;;;;;;;-0.70;99.90;;;;;;5084408;28;20139;-81
2021/01/06 08:21:20;;;;;;;40.22;17.67;;;-0.70;99.90;;;;;;5082970;28;19920;-80
2021/01/06 08:24:08;;;;;;;41.33;18.02;;;-0.70;99.90;;;;;;5066889;28;20430;-79
2021/01/06 08:26:50;;;;;;;46.00;17.75;;;-0.70;99.90;;;;;;5061639;28;20091;-77
2021/01/06 08:29:29;;;;;;;42.55;17.70;;;-0.60;99.90;;;;;;5065918;28;20044;-79
2021/01/06 08:32:04;;;;;;;44.83;20.48;;;-0.60;99.90;;;;;;5047920;28;20139;-80
2021/01/06 08:34:55;;;;;;;43.47;19.73;;;-0.60;99.90;;;;;;5056189;28;20519;-80
2021/01/06 08:37:33;;;;;;;48.65;18.75;;;-0.70;99.90;;;;;;5074474;28;20036;-79
2021/01/06 08:40:23;;;;;;;45.50;20.60;;;-0.70;99.90;;;;;;5091247;28;20525;-79
2021/01/06 08:42:54;;;;;;;40.03;16.70;;;-0.70;99.90;;;;;;5074119;28;20043;-80
2021/01/06 08:45:32;;;;;;;46.53;19.35;;;-0.70;99.90;;;;;;5090305;28;20047;-79
2021/01/06 08:48:24;;;;;;;43.00;18.77;;;-0.70;99.90;;;;;;5090158;28;20602;-80
2021/01/06 08:51:08;;;;;;;47.90;19.52;;;-0.70;99.90;;;;;;5089792;28;20109;-79
2021/01/06 08:53:42;;;;;;;43.00;18.50;;;-0.70;99.90;;;;;;5089861;28;20402;-79
2021/01/06 08:56:23;;;;;;;46.63;19.83;;;-0.70;99.90;;;;;;5073129;28;20044;-79
2021/01/06 08:58:57;;;;;;;45.83;19.50;;;-0.60;99.90;;;;;;5073467;28;20046;-80
2021/01/06 09:01:47;;;;;;;;;;;-0.60;99.90;;;;;;5071422;28;20071;-80
2021/01/06 09:04:32;;;;;;;43.45;18.60;;;-0.60;99.90;;;;;;5053597;28;19925;-79
2021/01/06 09:07:03;;;;;;;42.83;18.58;;;-0.60;99.90;;;;;;5053541;28;20041;-79
2021/01/06 09:09:59;;;;;;;48.83;19.65;;;-0.60;99.90;;;;;;5053253;28;20282;-79
2021/01/06 09:12:56;;;;;;;42.03;17.55;;;-0.60;99.90;;;;;;5069457;28;20492;-79
2021/01/06 09:15:37;;;;;;;46.47;20.83;;;-0.60;99.90;;;;;;5053476;28;20120;-79
2021/01/06 09:18:38;;;;;;;42.67;18.48;;;-0.50;99.90;;;;;;5053430;28;20052;-80
2021/01/06 09:21:22;;;;;;;42.40;18.55;;;-0.40;99.90;;;;;;5029125;28;20055;-79
2021/01/06 09:23:57;;;;;;;48.80;20.80;;;-0.40;99.90;;;;;;5052973;28;20044;-79
2021/01/06 09:26:29;;;;;;;45.70;19.40;;;-0.30;99.90;;;;;;5068895;28;20044;-78
2021/01/06 09:29:05;;;;;;;44.95;19.63;;;-0.30;99.90;;;;;;5043347;28;20046;-81
2021/01/06 09:31:40;;;;;;;47.70;19.60;;;-0.40;99.90;;;;;;5050231;28;20072;-80
2021/01/06 09:34:15;;;;;;;45.42;19.08;;;-0.40;99.90;;;;;;5050222;28;20135;-81
2021/01/06 09:36:47;;;;;;;43.35;17.05;;;-0.40;99.90;;;;;;5051142;28;20431;-80
2021/01/06 09:39:22;;;;;;;;;;;-0.30;99.90;;;;;;5033901;28;20041;-79
2021/01/06 09:41:58;;;;;;;50.05;19.00;;;-0.30;99.90;;;;;;5050549;28;20023;-80
2021/01/06 09:44:30;;;;;;;49.30;22.13;;;-0.40;99.90;;;;;;5049250;28;20092;-79
2021/01/06 09:47:23;;;;;;;47.88;18.88;;;-0.40;99.90;;;;;;5033638;28;20495;-79
2021/01/06 09:49:59;;;;;;;40.10;17.77;;;-0.40;99.90;;;;;;5033414;28;20488;-80
2021/01/06 09:52:37;;;;;;;48.35;20.95;;;-0.30;99.90;;;;;;5033139;28;20076;-80
2021/01/06 09:55:15;;;;;;;40.90;17.65;;;-0.30;99.90;;;;;;5065757;28;20082;-81
2021/01/06 09:57:56;;;;;;;41.42;17.88;;;-0.40;99.90;;;;;;5032636;28;20123;-79
2021/01/06 10:00:35;;;;;;;47.70;17.40;;;-0.40;99.90;;;;;;5048903;28;20136;-79
2021/01/06 10:03:07;;;;;;;44.78;19.48;;;-0.30;99.90;;;;;;5048715;28;20067;-80
2021/01/06 10:05:44;;;;;;;44.60;18.08;;;-0.30;99.90;;;;;;5064939;28;20055;-80
2021/01/06 10:08:30;;;;;;;47.55;19.42;;;-0.20;99.90;;;;;;5035304;28;20049;-80
2021/01/06 10:11:21;;;;;;;42.13;17.60;;;-0.20;99.90;;;;;;5037189;28;20095;-79
2021/01/06 10:14:26;;;;;;;44.53;17.77;;;-0.20;99.90;;;;;;5036828;28;20049;-80
2021/01/06 10:17:07;;;;;;;43.45;18.17;;;-0.20;99.90;;;;;;5036958;28;20458;-80
2021/01/06 10:19:44;;;;;;;47.47;20.27;;;-0.10;99.90;;;;;;5036820;28;20057;-79
2021/01/06 10:22:51;;;;;;;42.17;18.58;;;-0.10;99.90;;;;;;5052705;28;20403;-80
2021/01/06 10:25:37;;;;;;;40.05;18.38;;;-0.10;99.90;;;;;;5036733;28;20438;-80
2021/01/06 10:28:26;;;;;;;41.58;16.85;;;-0.10;99.90;;;;;;5036628;28;20037;-80
2021/01/06 10:31:13;;;;;;;43.05;18.35;;;-0.10;99.90;;;;;;5037378;28;20045;-80
2021/01/06 10:34:00;;;;;;;38.63;17.98;;;0.00;99.90;;;;;;5043825;28;20140;-80
2021/01/06 10:37:03;;;;;;;40.92;18.73;;;0.00;99.90;;;;;;5053822;28;20052;-80
2021/01/06 10:39:42;;;;;;;39.67;16.65;;;0.00;99.90;;;;;;5038719;28;20044;-80
2021/01/06 10:42:16;;;;;;;45.85;17.58;;;0.00;99.90;;;;;;5053276;28;20037;-80
2021/01/06 10:44:54;;;;;;;36.83;15.43;;;0.00;99.90;;;;;;5037604;28;20041;-80
2021/01/06 10:47:31;;;;;;;37.92;17.17;;;0.10;99.90;;;;;;5053209;28;20503;-80
2021/01/06 10:50:06;;;;;;;40.08;17.20;;;0.20;99.90;;;;;;5037690;28;20049;-79
2021/01/06 10:53:02;;;;;;;33.40;16.17;;;0.20;99.90;;;;;;5037571;28;20052;-80
2021/01/06 10:55:50;;;;;;;35.10;15.48;;;0.30;99.90;;;;;;5053514;28;20048;-79
2021/01/06 10:58:58;;;;;;;33.58;14.80;;;0.30;99.90;;;;;;5053407;28;20041;-79
2021/01/06 11:02:16;;;;;;;35.80;15.05;;;0.30;99.90;;;;;;5053238;28;20579;-79
2021/01/06 11:05:10;;;;;;;34.40;15.10;;;0.50;99.90;;;;;;5033650;28;20053;-80
2021/01/06 11:08:07;;;;;;;33.55;13.55;;;0.40;99.90;;;;;;5053065;28;20114;-79
2021/01/06 11:11:06;;;;;;;31.45;14.32;;;0.50;99.90;;;;;;5027440;28;20061;-79
2021/01/06 11:13:47;;;;;;;30.17;14.38;;;0.40;99.90;;;;;;5036986;28;20049;-80
2021/01/06 11:16:26;;;;;;;30.83;14.63;;;0.40;99.90;;;;;;5052660;28;20132;-79
2021/01/06 11:18:57;;;;;;;32.63;14.45;;;0.30;99.90;;;;;;5051655;28;20610;-79
2021/01/06 11:21:41;;;;;;;31.13;14.15;;;0.40;99.90;;;;;;5052776;28;20045;-80
2021/01/06 11:24:30;;;;;;;24.50;11.63;;;0.30;99.90;;;;;;5052727;28;20041;-79
2021/01/06 11:27:02;;;;;;;31.08;13.75;;;0.30;99.90;;;;;;5036772;28;20135;-79
2021/01/06 11:29:53;;;;;;;34.85;14.48;;;0.30;99.90;;;;;;5036770;28;20049;-78
2021/01/06 11:32:30;;;;;;;29.50;14.05;;;0.30;99.90;;;;;;5052002;28;20094;-75
2021/01/06 11:35:22;;;;;;;27.80;13.43;;;0.30;99.90;;;;;;5052650;28;20036;-80
2021/01/06 11:37:55;;;;;;;25.40;13.57;;;0.20;99.90;;;;;;5052777;28;20124;-80
2021/01/06 11:40:26;;;;;;;31.45;13.95;;;0.20;99.90;;;;;;5053392;28;20047;-80
2021/01/06 11:43:00;;;;;;;32.28;15.13;;;0.20;99.90;;;;;;5037398;28;20045;-80
2021/01/06 11:45:49;;;;;;;31.15;14.00;;;0.20;99.90;;;;;;5036887;28;20043;-80
2021/01/06 11:48:32;;;;;;;32.53;14.27;;;0.30;99.90;;;;;;5052605;28;20047;-80
2021/01/06 11:51:20;;;;;;;29.83;13.70;;;0.30;99.90;;;;;;5052548;28;20058;-81
2021/01/06 11:54:09;;;;;;;29.17;14.00;;;0.40;99.90;;;;;;5051756;28;20287;-80
2021/01/06 11:57:07;;;;;;;27.23;13.57;;;0.30;99.90;;;;;;5053079;28;20548;-80
2021/01/06 11:59:45;;;;;;;28.48;12.75;;;0.30;99.90;;;;;;5037241;28;20057;-80
2021/01/06 12:02:24;;;;;;;26.35;11.98;;;0.30;99.90;;;;;;5052918;28;20049;-80
2021/01/06 12:05:31;;;;;;;40.65;22.65;;;0.20;99.90;;;;;;5052845;28;20127;-81
2021/01/06 12:08:22;;;;;;;33.83;18.05;;;0.30;99.90;;;;;;5052808;28;20051;-80
2021/01/06 12:11:10;;;;;;;27.00;13.43;;;0.30;99.90;;;;;;5036935;28;20037;-80
2021/01/06 12:14:05;;;;;;;33.20;14.60;;;0.30;99.90;;;;;;5053302;28;20048;-80
2021/01/06 12:16:49;;;;;;;30.45;14.38;;;0.30;99.90;;;;;;5053707;28;20051;-80
2021/01/06 12:19:41;;;;;;;34.42;17.48;;;0.30;99.90;;;;;;5053407;28;20052;-80
2021/01/06 12:22:15;;;;;;;30.10;12.85;;;0.40;99.90;;;;;;5036518;28;20033;-80
2021/01/06 12:24:56;;;;;;;27.08;13.50;;;0.50;99.90;;;;;;5052625;28;20041;-80
2021/01/06 12:27:35;;;;;;;25.70;12.82;;;0.50;99.90;;;;;;5052710;28;20567;-79
2021/01/06 12:30:24;;;;;;;21.00;11.48;;;0.50;99.90;;;;;;5052708;28;20056;-81
2021/01/06 12:33:10;;;;;;;;;;;0.50;99.90;;;;;;5054279;28;20047;-81
2021/01/06 12:35:46;;;;;;;24.13;11.68;;;0.50;99.90;;;;;;5056891;28;20393;-80
2021/01/06 12:38:23;;;;;;;23.33;11.85;;;0.50;99.90;;;;;;5057564;28;20496;-80
2021/01/06 12:41:03;;;;;;;23.33;12.70;;;0.50;99.90;;;;;;5064232;28;20041;-80
2021/01/06 12:43:59;;;;;;;27.38;13.63;;;0.50;99.90;;;;;;5071953;28;20048;-79
2021/01/06 12:46:35;;;;;;;25.67;12.10;;;0.50;99.90;;;;;;5064602;28;20071;-79
2021/01/06 12:49:15;;;;;;;26.20;12.30;;;0.50;99.90;;;;;;5083059;28;20041;-78
2021/01/06 12:52:15;;;;;;;24.70;12.88;;;0.50;99.90;;;;;;5072996;28;20527;-79
2021/01/06 12:54:47;;;;;;;22.33;10.43;;;0.50;99.90;;;;;;5036573;28;20054;-79
2021/01/06 12:57:27;;;;;;;32.03;17.35;;;0.50;99.90;;;;;;5079858;28;20147;-79
2021/01/06 13:00:03;;;;;;;28.83;13.75;;;0.50;99.90;;;;;;5084769;28;20047;-78
2021/01/06 13:02:36;;;;;;;27.02;13.02;;;0.50;99.90;;;;;;5070477;28;20144;-79
2021/01/06 13:05:27;;;;;;;28.38;13.18;;;0.50;99.90;;;;;;5053856;28;20044;-79
2021/01/06 13:07:57;;;;;;;28.08;12.40;;;0.60;99.90;;;;;;5054317;28;20555;-79
2021/01/06 13:10:40;;;;;;;27.65;13.98;;;0.50;99.90;;;;;;5070710;28;20515;-79
2021/01/06 13:13:27;;;;;;;21.55;11.48;;;0.60;99.90;;;;;;5054298;28;20503;-78
2021/01/06 13:16:00;;;;;;;22.50;11.27;;;0.60;99.90;;;;;;5071268;28;20054;-79
2021/01/06 13:18:46;;;;;;;25.80;11.87;;;0.50;99.90;;;;;;5054132;28;20051;-79
2021/01/06 13:21:32;;;;;;;20.33;11.68;;;0.60;99.90;;;;;;5054371;28;20036;-79
2021/01/06 13:24:13;;;;;;;20.73;11.13;;;0.60;99.90;;;;;;5070412;28;20043;-79
2021/01/06 13:27:01;;;;;;;19.30;10.13;;;0.60;99.90;;;;;;5070058;28;20044;-79
2021/01/06 13:29:58;;;;;;;23.80;11.85;;;0.50;99.90;;;;;;5070074;28;20040;-79
2021/01/06 13:32:44;;;;;;;24.55;11.55;;;0.50;99.90;;;;;;5054059;28;20056;-79
2021/01/06 13:35:27;;;;;;;23.13;11.43;;;0.50;99.90;;;;;;5069941;28;20067;-79
2021/01/06 13:38:32;;;;;;;23.70;11.52;;;0.40;99.90;;;;;;5070058;28;20044;-80